Terminal Aerodrome Forecast
Issued by NWS Kansas City/Pleasant Hill, MO

Home | Current Version | Previous Version | Text Only | Print | Product List | Glossary On
Versions: 1 2 3 4 5 6 7 8 9 10 11 12 13 14 15 16 17 18 19 20 21 22
774
FTUS43 KEAX 221120
TAFMCI
TAF
KMCI 221120Z 2212/2312 02009KT P6SM BKN060
     FM221800 35012G20KT P6SM BKN100
     FM222200 33011KT P6SM OVC050
      TEMPO 2223/2303 OVC025
     FM230600 33006KT P6SM BKN250=

USA.gov is the U.S. government's official web portal to all federal, state and local government web resources and services.